KPBI

Palm Beach International Airport

West Palm Beach, Florida, USA
METAR KPBI 161853Z 03011G14KT 10SM SCT033 SCT180 SCT250 22/13 A3016 RMK AO2 SLP211 T02220133 $
Observed Flight Rules
Jan-16 @ 18:53 UTC (26 minutes ago) Visual Flight Rules
Wind Visibility Clouds
30° at 11 knots
 Gusting to 14 knots
10 miles
  • Scattered at 3,300' AGL
  • Scattered at 18,000' AGL
  • Scattered at 25,000' AGL
Temperatures Readings
Current 22°C / 72°F
Dewpoint 13°C / 55°F
Humidity 57%
Altimeter 30.16" Hg
Pressure 1021.1 hPa
Elevation 6
METAR KPBI 161853Z 03011G14KT 10SM SCT033 SCT180 SCT250 22/13 A3016 RMK AO2 SLP211 T02220133 $
Observed Flight Rules
Jan-16 @ 18:53 UTC
(26 minutes ago)
VFR
Wind Visibility
30° at 11 knots
 Gusting to 14 knots
10 miles
Clouds
  • Scattered at 3,300' AGL
  • Scattered at 18,000' AGL
  • Scattered at 25,000' AGL
Temperature Dewpoint
22°C / 72°F 13°C / 55°F
Humidity Altimeter Pressure
57% 30.16" Hg 1021.1 hPa